createdAt,value
2023-03-23T15:58:25.713Z,4.90
2023-03-23T16:03:43.441Z,3.90
2023-03-23T16:13:33.837Z,8.00
2023-03-23T16:18:26.636Z,4.50
2023-03-23T16:23:19.758Z,4.90
2023-03-23T16:28:14.735Z,6.30
2023-03-23T16:33:08.217Z,5.40
2023-03-23T16:38:07.494Z,4.80
2023-03-23T16:43:01.836Z,3.60
2023-03-23T16:48:02.604Z,6.90
2023-03-23T16:52:55.445Z,4.70
2023-03-23T16:57:48.537Z,6.90
2023-03-23T17:02:43.172Z,4.50
2023-03-23T17:07:36.543Z,6.00
2023-03-23T17:12:29.348Z,9.10
2023-03-23T17:17:22.160Z,6.10
2023-03-23T17:22:15.579Z,4.60
2023-03-23T17:27:08.515Z,6.90
2023-03-23T17:32:01.341Z,5.10
2023-03-23T17:36:54.165Z,5.90
2023-03-23T17:41:46.964Z,7.20
2023-03-23T17:46:39.892Z,6.30
2023-03-23T17:51:32.721Z,6.70
2023-03-23T17:56:25.551Z,8.00
2023-03-23T18:01:18.543Z,6.20
2023-03-23T18:06:11.810Z,5.40
2023-03-23T18:11:05.638Z,5.40
2023-03-23T18:15:59.381Z,6.70
2023-03-23T18:21:00.389Z,5.70
2023-03-23T18:25:54.778Z,6.20
2023-03-23T18:30:49.505Z,5.60
2023-03-23T18:35:42.925Z,5.80
2023-03-23T18:40:36.101Z,9.50
2023-03-23T18:45:29.013Z,10.00
2023-03-23T18:50:21.816Z,8.60
2023-03-23T18:55:14.602Z,8.80
2023-03-23T19:00:08.711Z,9.00
2023-03-23T19:05:01.727Z,9.60
2023-03-23T19:09:55.246Z,7.60
2023-03-23T19:14:48.093Z,8.90
2023-03-23T19:19:43.229Z,6.90
2023-03-23T19:24:36.860Z,6.00
2023-03-23T19:29:29.922Z,5.90
2023-03-23T19:34:23.095Z,6.70
2023-03-23T19:39:15.960Z,7.10
2023-03-23T19:44:09.135Z,5.40
2023-03-23T19:49:02.505Z,5.50
2023-03-23T19:53:57.657Z,4.40
2023-03-23T19:58:51.384Z,5.10
2023-03-23T20:03:45.327Z,5.20
2023-03-23T20:08:39.170Z,4.70
2023-03-23T20:13:32.933Z,7.30
2023-03-23T20:18:28.643Z,4.60
2023-03-23T20:23:22.811Z,2.90
2023-03-23T20:28:16.692Z,3.20
2023-03-23T20:33:10.651Z,2.30
2023-03-23T20:38:03.629Z,4.00
2023-03-23T20:42:57.907Z,3.40
2023-03-23T20:47:50.896Z,2.50
2023-03-23T20:52:45.287Z,2.30
2023-03-23T20:57:40.386Z,2.10
2023-03-23T21:02:34.423Z,2.70
2023-03-23T21:07:28.339Z,2.30
2023-03-23T21:12:22.545Z,4.40
2023-03-23T21:17:15.866Z,3.00
2023-03-23T21:22:09.800Z,2.60
2023-03-23T21:27:03.106Z,3.20
2023-03-23T21:36:54.576Z,4.80
2023-03-23T21:41:49.780Z,3.90
2023-03-23T21:46:43.438Z,3.30
2023-03-23T21:51:37.024Z,5.30
2023-03-23T21:56:30.401Z,4.70
2023-03-23T22:01:24.108Z,3.90
2023-03-23T22:06:26.401Z,4.20
2023-03-23T22:11:25.186Z,3.10
2023-03-23T22:16:19.289Z,5.30
2023-03-23T22:21:13.453Z,4.60
2023-03-23T22:26:07.961Z,3.80
2023-03-23T22:31:07.218Z,4.50
2023-03-23T22:36:00.446Z,3.40
2023-03-23T22:40:58.000Z,3.20
2023-03-23T22:45:53.027Z,5.40
2023-03-23T22:50:47.544Z,4.50
2023-03-23T22:55:52.732Z,5.60
2023-03-23T23:00:49.754Z,6.00
2023-03-23T23:05:45.464Z,6.60
2023-03-23T23:10:38.261Z,6.30
2023-03-23T23:15:31.057Z,7.60
2023-03-23T23:20:24.609Z,6.30
2023-03-23T23:25:17.473Z,8.80
2023-03-23T23:30:10.707Z,6.70
2023-03-23T23:35:04.818Z,5.80
2023-03-23T23:39:57.647Z,6.40
2023-03-23T23:44:50.474Z,6.10
2023-03-23T23:49:43.639Z,5.00
2023-03-23T23:54:37.692Z,6.40
2023-03-23T23:59:31.804Z,4.30
